Time;durP1;ratioP1;P1;durP2;ratioP2;P2;SDS_P1;SDS_P2;PMS_P1;PMS_P2;Temp;Humidity;BMP_temperature;BMP_pressure;BME280_temperature;BME280_humidity;BME280_pressure;Samples;Min_cycle;Max_cycle;Signal;HPM_P1;HPM_P2
2021/11/19 00:01:38;;;;;;;23.55;14.15;;;11.90;99.90;;;;;;4995517;28;20189;-80
2021/11/19 00:04:04;;;;;;;30.63;14.65;;;11.80;99.90;;;;;;4994939;28;20229;-78
2021/11/19 00:06:30;;;;;;;36.72;13.93;;;11.80;99.90;;;;;;4992760;28;20170;-78
2021/11/19 00:08:56;;;;;;;22.98;12.85;;;11.90;99.90;;;;;;4976177;28;20277;-78
2021/11/19 00:11:27;;;;;;;31.75;13.35;;;11.70;99.90;;;;;;4976553;28;20170;-78
2021/11/19 00:13:53;;;;;;;44.42;13.75;;;11.80;99.90;;;;;;4976594;28;20622;-78
2021/11/19 00:16:20;;;;;;;26.92;12.88;;;11.80;99.90;;;;;;4975744;28;20754;-76
2021/11/19 00:18:46;;;;;;;22.40;12.93;;;11.70;99.90;;;;;;4975198;28;20207;-82
2021/11/19 00:21:12;;;;;;;34.85;13.88;;;11.70;99.90;;;;;;4975628;28;20177;-81
2021/11/19 00:23:49;;;;;;;23.25;13.82;;;11.90;99.90;;;;;;4975321;28;20178;-78
2021/11/19 00:26:22;;;;;;;25.77;13.25;;;11.70;99.90;;;;;;4975154;28;20535;-78
2021/11/19 00:28:48;;;;;;;27.33;13.38;;;11.70;99.90;;;;;;4974804;28;20268;-80
2021/11/19 00:31:14;;;;;;;27.15;13.50;;;11.70;99.90;;;;;;4974952;28;20166;-78
2021/11/19 00:33:41;;;;;;;24.25;12.75;;;11.80;99.90;;;;;;4975034;28;20220;-80
2021/11/19 00:36:08;;;;;;;33.15;14.35;;;11.70;99.90;;;;;;4974886;28;20169;-82
2021/11/19 00:38:36;;;;;;;30.58;13.38;;;11.50;99.90;;;;;;4974770;28;20568;-79
2021/11/19 00:41:05;;;;;;;28.73;13.70;;;11.60;99.90;;;;;;4974652;28;20177;-78
2021/11/19 00:43:31;;;;;;;27.55;13.63;;;11.50;99.90;;;;;;4974294;28;20178;-78
2021/11/19 00:45:58;;;;;;;33.75;15.20;;;11.50;99.90;;;;;;4974468;28;20170;-79
2021/11/19 00:48:25;;;;;;;33.47;13.90;;;11.60;99.90;;;;;;4974691;28;20681;-78
2021/11/19 00:51:16;;;;;;;28.35;13.55;;;11.80;99.90;;;;;;4974724;28;20170;-78
2021/11/19 00:53:45;;;;;;;25.98;12.68;;;12.00;99.90;;;;;;4974545;28;20189;-82
2021/11/19 00:56:17;;;;;;;29.73;13.82;;;11.90;99.90;;;;;;4973821;28;20213;-78
2021/11/19 00:58:44;;;;;;;27.83;14.45;;;11.80;99.90;;;;;;4974332;28;20236;-77
2021/11/19 01:01:15;;;;;;;24.15;12.82;;;11.70;99.90;;;;;;4974388;28;20568;-77
2021/11/19 01:03:43;;;;;;;22.23;13.80;;;11.90;99.90;;;;;;4972955;28;20232;-79
2021/11/19 01:06:10;;;;;;;31.40;13.15;;;12.00;99.90;;;;;;4974190;28;20178;-79
2021/11/19 01:08:37;;;;;;;27.40;13.30;;;11.80;99.90;;;;;;4973968;28;20201;-80
2021/11/19 01:11:05;;;;;;;28.13;13.73;;;12.00;99.90;;;;;;4974089;28;20173;-78
2021/11/19 01:13:33;;;;;;;28.55;13.90;;;11.90;99.90;;;;;;4974071;28;20224;-78
2021/11/19 01:16:04;;;;;;;29.08;13.52;;;11.90;99.90;;;;;;4973749;28;20200;-79
2021/11/19 01:18:35;;;;;;;28.95;13.93;;;12.00;99.90;;;;;;4974093;28;20189;-80
2021/11/19 01:21:08;;;;;;;29.70;13.73;;;12.20;99.90;;;;;;4974064;28;20320;-81
2021/11/19 01:23:35;;;;;;;20.55;12.50;;;12.30;99.90;;;;;;4973948;28;20193;-84
2021/11/19 01:26:06;;;;;;;39.05;13.18;;;12.40;99.90;;;;;;4972533;28;20244;-79
2021/11/19 01:28:31;;;;;;;32.83;14.05;;;12.20;99.90;;;;;;4974095;28;20283;-79
2021/11/19 01:31:05;;;;;;;20.20;12.60;;;12.10;99.90;;;;;;4974285;28;20646;-78
2021/11/19 01:33:31;;;;;;;27.58;13.27;;;12.10;99.90;;;;;;4974054;28;20177;-79
2021/11/19 01:35:57;;;;;;;23.95;13.90;;;12.00;99.90;;;;;;4974076;28;20540;-82
2021/11/19 01:38:23;;;;;;;34.13;13.40;;;12.00;99.90;;;;;;4974032;28;20208;-78
2021/11/19 01:40:59;;;;;;;24.20;13.45;;;12.00;99.90;;;;;;4972707;28;20224;-79
2021/11/19 01:43:26;;;;;;;29.25;12.98;;;12.00;99.90;;;;;;4973678;28;20544;-78
2021/11/19 01:45:57;;;;;;;37.55;13.27;;;12.00;99.90;;;;;;4973981;28;20181;-80
2021/11/19 01:48:31;;;;;;;24.17;13.15;;;12.10;99.90;;;;;;4974203;28;20277;-79
2021/11/19 01:51:14;;;;;;;29.17;14.30;;;12.20;99.90;;;;;;4974335;28;20185;-79
2021/11/19 01:53:47;;;;;;;22.65;12.43;;;12.20;99.90;;;;;;4973809;28;20642;-82
2021/11/19 01:56:19;;;;;;;28.13;14.13;;;12.30;99.90;;;;;;4973824;28;20166;-79
2021/11/19 01:58:52;;;;;;;29.98;15.40;;;12.10;99.90;;;;;;4973543;28;20273;-81
2021/11/19 02:01:29;;;;;;;31.77;12.95;;;12.00;99.90;;;;;;4973934;28;20181;-78
2021/11/19 02:04:05;;;;;;;29.35;14.10;;;12.10;99.90;;;;;;4973418;28;20232;-78
2021/11/19 02:06:36;;;;;;;24.52;14.02;;;12.10;99.90;;;;;;4973812;28;20631;-79
2021/11/19 02:09:09;;;;;;;19.65;14.05;;;12.20;99.90;;;;;;4976719;28;20197;-82
2021/11/19 02:12:05;;;;;;;23.48;14.27;;;12.10;99.90;;;;;;4978129;28;20163;-79
2021/11/19 02:14:41;;;;;;;25.52;15.52;;;12.10;99.90;;;;;;4977564;28;20656;-78
2021/11/19 02:17:08;;;;;;;24.55;14.88;;;12.20;99.90;;;;;;4977249;28;20220;-79
2021/11/19 02:19:40;;;;;;;26.05;13.52;;;12.20;99.90;;;;;;4977678;28;20632;-80
2021/11/19 02:22:11;;;;;;;29.38;15.73;;;12.30;99.90;;;;;;4977345;28;20201;-81
2021/11/19 02:24:45;;;;;;;20.67;13.52;;;12.30;99.90;;;;;;4977277;28;20185;-78
2021/11/19 02:27:20;;;;;;;32.13;15.25;;;12.40;99.90;;;;;;4976933;28;20228;-79
2021/11/19 02:29:50;;;;;;;26.98;14.55;;;12.20;99.90;;;;;;4977165;28;20543;-82
2021/11/19 02:32:23;;;;;;;29.25;14.02;;;12.20;99.90;;;;;;4977655;28;20198;-78
2021/11/19 02:34:49;;;;;;;24.83;15.90;;;12.20;99.90;;;;;;4977631;28;20177;-78
2021/11/19 02:37:21;;;;;;;24.00;13.95;;;12.30;99.90;;;;;;4977377;28;20296;-82
2021/11/19 02:40:12;;;;;;;25.60;15.13;;;12.30;99.90;;;;;;4976773;28;20281;-79
2021/11/19 02:42:48;;;;;;;25.83;14.93;;;12.20;99.90;;;;;;4969092;28;20269;-82
2021/11/19 02:45:25;;;;;;;29.83;16.00;;;12.40;99.90;;;;;;4977217;28;20224;-78
2021/11/19 02:47:51;;;;;;;34.42;16.70;;;12.50;99.90;;;;;;4976989;28;20599;-80
2021/11/19 02:50:19;;;;;;;30.75;16.55;;;12.40;99.90;;;;;;4977002;28;20721;-82
2021/11/19 02:52:48;;;;;;;33.92;16.17;;;12.40;99.90;;;;;;4976833;28;20217;-78
2021/11/19 02:55:19;;;;;;;25.00;15.77;;;12.40;99.90;;;;;;4976887;28;20170;-78
2021/11/19 02:57:46;;;;;;;25.42;14.93;;;12.30;99.90;;;;;;4976751;28;20190;-78
2021/11/19 03:00:22;;;;;;;22.70;15.40;;;12.30;99.90;;;;;;4976715;28;20210;-78
2021/11/19 03:02:48;;;;;;;28.33;15.75;;;12.40;99.90;;;;;;4976849;28;20248;-79
2021/11/19 03:05:17;;;;;;;28.60;15.60;;;12.60;99.90;;;;;;4976606;28;20204;-78
2021/11/19 03:07:43;;;;;;;30.13;16.35;;;12.60;99.90;;;;;;4976943;28;20211;-81
2021/11/19 03:10:23;;;;;;;25.58;16.60;;;12.50;99.90;;;;;;4976702;28;20540;-82
2021/11/19 03:12:50;;;;;;;24.25;14.70;;;12.50;99.90;;;;;;4976946;28;20201;-82
2021/11/19 03:15:20;;;;;;;33.10;17.63;;;12.40;99.90;;;;;;4976571;28;20181;-79
2021/11/19 03:17:46;;;;;;;31.63;17.20;;;12.50;99.90;;;;;;4976567;28;20197;-78
2021/11/19 03:20:14;;;;;;;27.55;17.30;;;12.40;99.90;;;;;;4975430;28;20247;-78
2021/11/19 03:22:40;;;;;;;35.35;16.88;;;12.30;99.90;;;;;;4976277;28;20224;-78
2021/11/19 03:25:08;;;;;;;20.92;15.85;;;12.30;99.90;;;;;;4976318;28;20177;-78
2021/11/19 03:27:34;;;;;;;32.78;17.50;;;12.30;99.90;;;;;;4976233;28;20192;-81
2021/11/19 03:30:00;;;;;;;31.05;17.20;;;12.10;99.90;;;;;;4976405;28;20170;-78
2021/11/19 03:32:30;;;;;;;29.05;17.10;;;11.90;99.90;;;;;;4976613;28;20177;-77
2021/11/19 03:34:56;;;;;;;34.55;16.83;;;11.90;99.90;;;;;;4976128;28;20181;-78
2021/11/19 03:37:22;;;;;;;23.63;16.15;;;12.00;99.90;;;;;;4976659;28;20603;-78
2021/11/19 03:39:48;;;;;;;32.47;17.05;;;12.10;99.90;;;;;;4976049;28;20248;-82
2021/11/19 03:42:15;;;;;;;28.52;17.15;;;12.00;99.90;;;;;;4975972;28;20178;-80
2021/11/19 03:44:53;;;;;;;31.83;16.67;;;12.10;99.90;;;;;;4975941;28;20174;-79
2021/11/19 03:47:38;;;;;;;30.95;18.25;;;12.20;99.90;;;;;;4974586;28;20194;-78
2021/11/19 03:50:09;;;;;;;25.08;16.90;;;12.30;99.90;;;;;;4974596;28;20240;-82
2021/11/19 03:52:38;;;;;;;28.38;15.93;;;12.20;99.90;;;;;;4975662;28;20204;-78
2021/11/19 03:55:16;;;;;;;32.85;18.80;;;12.30;99.90;;;;;;4975678;28;20174;-80
2021/11/19 03:57:43;;;;;;;28.35;16.83;;;12.30;99.90;;;;;;4976187;28;20272;-79
2021/11/19 04:00:15;;;;;;;33.63;17.65;;;12.30;99.90;;;;;;4976390;28;20201;-80
2021/11/19 04:02:41;;;;;;;25.20;16.00;;;12.30;99.90;;;;;;4975617;28;20565;-77
2021/11/19 04:05:10;;;;;;;27.85;16.80;;;12.40;99.90;;;;;;4975482;28;20190;-80
2021/11/19 04:07:36;;;;;;;26.23;16.05;;;12.50;99.90;;;;;;4975622;28;20209;-79
2021/11/19 04:10:09;;;;;;;23.02;16.00;;;12.50;99.90;;;;;;4975445;28;20170;-79
2021/11/19 04:12:34;;;;;;;34.88;16.60;;;12.60;99.90;;;;;;4974073;28;20170;-79
2021/11/19 04:15:00;;;;;;;32.10;17.17;;;12.60;99.90;;;;;;4975348;28;20541;-79
2021/11/19 04:17:26;;;;;;;23.48;16.38;;;12.60;99.90;;;;;;4975173;28;20676;-79
2021/11/19 04:19:52;;;;;;;29.48;16.10;;;12.60;99.90;;;;;;4974851;28;20205;-79
2021/11/19 04:22:21;;;;;;;30.63;17.83;;;12.60;99.90;;;;;;4973862;28;20264;-78
2021/11/19 04:24:50;;;;;;;35.15;17.77;;;12.60;99.90;;;;;;4975112;28;20333;-77
2021/11/19 04:27:16;;;;;;;36.03;17.83;;;12.50;99.90;;;;;;4975490;28;20194;-77
2021/11/19 04:29:42;;;;;;;26.80;16.73;;;12.40;99.90;;;;;;4975344;28;20170;-78
2021/11/19 04:32:09;;;;;;;31.17;16.83;;;12.40;99.90;;;;;;4975039;28;20170;-79
2021/11/19 04:34:36;;;;;;;30.70;17.77;;;12.30;99.90;;;;;;4973859;28;20638;-78
2021/11/19 04:37:02;;;;;;;27.27;16.40;;;12.30;99.90;;;;;;4975185;28;20245;-79
2021/11/19 04:39:27;;;;;;;25.88;16.45;;;12.20;99.90;;;;;;4975003;28;20225;-78
2021/11/19 04:41:53;;;;;;;24.92;17.40;;;12.20;99.90;;;;;;4974805;28;20630;-80
2021/11/19 04:44:20;;;;;;;29.27;17.25;;;12.30;99.90;;;;;;4975214;28;20626;-79
2021/11/19 04:46:47;;;;;;;29.80;16.77;;;12.20;99.90;;;;;;4975097;28;20170;-76
2021/11/19 04:49:14;;;;;;;27.75;17.67;;;12.10;99.90;;;;;;4975005;28;20266;-78
2021/11/19 04:51:42;;;;;;;27.67;17.23;;;12.20;99.90;;;;;;4975329;28;20181;-79
2021/11/19 04:54:10;;;;;;;24.30;15.63;;;12.20;99.90;;;;;;4990777;28;20158;-78
2021/11/19 04:56:37;;;;;;;25.92;15.98;;;12.30;99.90;;;;;;4994291;28;20181;-77
2021/11/19 04:59:04;;;;;;;22.35;15.10;;;12.40;99.90;;;;;;4974444;28;20577;-77
2021/11/19 05:01:33;;;;;;;28.35;14.82;;;12.50;99.90;;;;;;4985240;28;20189;-76
2021/11/19 05:03:59;;;;;;;28.92;15.77;;;12.60;99.90;;;;;;4976971;28;20257;-83
2021/11/19 05:06:25;;;;;;;23.65;15.88;;;12.40;99.90;;;;;;4975777;28;20742;-77
2021/11/19 05:08:51;;;;;;;25.80;14.93;;;12.40;99.90;;;;;;4975023;28;20635;-78
2021/11/19 05:11:44;;;;;;;24.15;16.33;;;12.30;99.90;;;;;;4974795;28;20166;-78
2021/11/19 05:14:10;;;;;;;26.33;16.02;;;12.40;99.90;;;;;;4971365;28;20200;-79
2021/11/19 05:16:36;;;;;;;27.08;16.10;;;12.30;99.90;;;;;;4974081;28;20177;-79
2021/11/19 05:19:03;;;;;;;29.52;17.17;;;12.30;99.90;;;;;;4973711;28;20213;-79
2021/11/19 05:21:30;;;;;;;22.58;15.05;;;12.50;99.90;;;;;;4974256;28;20665;-83
2021/11/19 05:23:55;;;;;;;26.50;15.15;;;12.50;99.90;;;;;;4987966;23;20218;-76
2021/11/19 05:26:21;;;;;;;26.90;15.85;;;12.50;99.90;;;;;;4973983;28;20181;-76
2021/11/19 05:28:47;;;;;;;25.85;16.83;;;12.60;99.90;;;;;;4972263;28;20603;-76
2021/11/19 05:31:14;;;;;;;25.17;16.33;;;12.70;99.90;;;;;;4973848;28;20265;-77
2021/11/19 05:33:42;;;;;;;30.70;17.92;;;12.70;99.90;;;;;;4973860;28;20168;-77
2021/11/19 05:36:09;;;;;;;24.80;16.63;;;12.70;99.90;;;;;;4973843;28;20529;-77
2021/11/19 05:38:39;;;;;;;30.30;16.05;;;12.60;99.90;;;;;;4972128;28;20212;-76
2021/11/19 05:41:07;;;;;;;26.83;15.15;;;12.50;99.90;;;;;;4973558;28;20202;-77
2021/11/19 05:43:35;;;;;;;24.63;15.73;;;12.40;99.90;;;;;;4973015;28;20181;-76
2021/11/19 05:46:01;;;;;;;28.90;16.83;;;12.60;99.90;;;;;;4973244;28;20580;-76
2021/11/19 05:48:27;;;;;;;23.00;15.57;;;12.60;99.90;;;;;;4973873;28;20244;-89
2021/11/19 05:50:53;;;;;;;23.63;15.18;;;12.60;99.90;;;;;;4973751;28;20170;-85
2021/11/19 05:53:20;;;;;;;34.47;17.63;;;12.50;99.90;;;;;;4972794;28;20196;-76
2021/11/19 05:55:48;;;;;;;31.63;17.10;;;12.60;99.90;;;;;;4972288;28;20261;-76
2021/11/19 05:58:15;;;;;;;29.45;17.02;;;12.80;99.90;;;;;;4973718;28;20182;-89
2021/11/19 06:00:51;;;;;;;30.05;15.95;;;12.90;99.90;;;;;;4973595;28;20213;-90
2021/11/19 06:03:17;;;;;;;28.38;17.50;;;12.90;99.90;;;;;;4973652;28;20173;-78
2021/11/19 06:05:42;;;;;;;29.33;16.75;;;12.70;99.90;;;;;;4973590;28;20253;-76
2021/11/19 06:08:08;;;;;;;22.20;15.48;;;12.70;99.90;;;;;;4973665;28;20221;-77
2021/11/19 06:10:41;;;;;;;34.45;18.27;;;12.40;99.90;;;;;;4973502;28;20170;-76
2021/11/19 06:13:10;;;;;;;26.30;16.88;;;12.50;99.90;;;;;;4973547;28;20246;-77
2021/11/19 06:15:43;;;;;;;31.70;18.17;;;12.60;99.90;;;;;;4973455;28;20173;-76
2021/11/19 06:18:20;;;;;;;23.42;16.75;;;12.40;99.90;;;;;;4973220;28;20197;-77
2021/11/19 06:20:51;;;;;;;29.23;17.90;;;12.40;99.90;;;;;;4972781;28;20205;-77
2021/11/19 06:23:20;;;;;;;29.10;16.90;;;12.30;99.90;;;;;;4973190;28;20712;-77
2021/11/19 06:25:47;;;;;;;32.20;18.00;;;12.30;99.90;;;;;;4970390;28;20178;-77
2021/11/19 06:28:23;;;;;;;30.98;18.00;;;12.40;99.90;;;;;;4973141;28;20182;-80
2021/11/19 06:30:49;;;;;;;26.58;16.52;;;12.60;99.90;;;;;;4973472;28;20586;-79
2021/11/19 06:33:15;;;;;;;28.67;17.90;;;12.50;99.90;;;;;;4973583;28;20174;-77
2021/11/19 06:35:41;;;;;;;29.65;16.92;;;12.50;99.90;;;;;;4972208;28;20265;-77
2021/11/19 06:38:06;;;;;;;33.38;18.00;;;12.40;99.90;;;;;;4972839;28;20352;-80
2021/11/19 06:40:36;;;;;;;31.60;17.23;;;12.30;99.90;;;;;;4973447;28;20209;-77
2021/11/19 06:43:02;;;;;;;33.55;17.40;;;12.10;99.90;;;;;;4972934;28;20173;-77
2021/11/19 06:45:29;;;;;;;27.17;17.98;;;12.20;99.90;;;;;;4972750;28;20201;-77
2021/11/19 06:47:55;;;;;;;34.67;18.55;;;12.20;99.90;;;;;;4972781;28;20198;-76
2021/11/19 06:50:24;;;;;;;31.15;18.13;;;12.20;99.90;;;;;;4972581;28;20588;-76
2021/11/19 06:52:49;;;;;;;34.30;18.55;;;12.30;99.90;;;;;;4973116;28;20201;-77
2021/11/19 06:55:16;;;;;;;26.58;17.13;;;12.20;99.90;;;;;;4974537;28;20665;-76
2021/11/19 06:57:42;;;;;;;30.52;18.42;;;12.30;99.90;;;;;;4975823;28;20185;-87
2021/11/19 07:00:18;;;;;;;30.77;17.80;;;12.20;99.90;;;;;;4976539;28;20696;-78
2021/11/19 07:02:44;;;;;;;31.55;19.08;;;12.40;99.90;;;;;;4975972;28;20168;-77
2021/11/19 07:05:10;;;;;;;33.90;17.52;;;12.60;99.90;;;;;;4975923;28;20174;-77
2021/11/19 07:07:36;;;;;;;28.95;18.33;;;12.40;99.90;;;;;;4975728;28;20264;-77
2021/11/19 07:10:04;;;;;;;30.92;17.90;;;12.30;99.90;;;;;;4975614;28;20694;-77
2021/11/19 07:12:29;;;;;;;28.27;17.00;;;12.40;99.90;;;;;;4975956;28;20165;-77
2021/11/19 07:14:55;;;;;;;28.60;19.05;;;12.50;99.90;;;;;;4976069;28;20636;-77
2021/11/19 07:17:20;;;;;;;32.35;19.38;;;12.60;99.90;;;;;;4976045;28;20657;-76
2021/11/19 07:19:46;;;;;;;35.17;20.02;;;12.70;99.90;;;;;;4974626;28;20210;-78
2021/11/19 07:22:13;;;;;;;42.20;21.25;;;12.60;99.90;;;;;;4976306;28;20174;-78
2021/11/19 07:24:40;;;;;;;31.33;19.60;;;12.70;99.90;;;;;;4975585;28;20192;-77
2021/11/19 07:27:07;;;;;;;33.30;20.25;;;13.00;99.90;;;;;;4975499;28;20220;-77
2021/11/19 07:29:33;;;;;;;34.78;18.35;;;13.00;99.90;;;;;;4975483;28;20162;-76
2021/11/19 07:31:59;;;;;;;33.90;19.42;;;12.90;99.90;;;;;;4975442;28;20713;-77
2021/11/19 07:34:25;;;;;;;39.53;21.20;;;12.80;99.90;;;;;;4975211;28;20204;-77
2021/11/19 07:36:51;;;;;;;27.85;18.85;;;12.80;99.90;;;;;;4975688;28;20169;-77
2021/11/19 07:39:16;;;;;;;32.13;19.13;;;12.90;99.90;;;;;;4970930;28;20704;-78
2021/11/19 07:41:42;;;;;;;40.05;19.50;;;12.90;99.90;;;;;;4988991;28;20621;-88
2021/11/19 07:44:08;;;;;;;32.60;17.05;;;13.20;99.90;;;;;;4976349;28;20181;-88
2021/11/19 07:46:34;;;;;;;24.88;17.70;;;13.10;99.90;;;;;;4974869;28;20256;-92
2021/11/19 07:49:01;;;;;;;31.13;18.20;;;13.00;99.90;;;;;;4972883;28;20205;-78
2021/11/19 07:51:30;;;;;;;31.70;20.33;;;12.90;99.90;;;;;;4968371;28;20173;-78
2021/11/19 07:53:57;;;;;;;32.43;21.50;;;12.80;99.90;;;;;;4975964;28;20481;-78
2021/11/19 07:56:31;;;;;;;32.70;19.75;;;12.60;99.90;;;;;;4975786;28;20418;-79
2021/11/19 07:59:07;;;;;;;31.80;19.25;;;12.80;99.90;;;;;;4973650;28;20193;-77
2021/11/19 08:01:35;;;;;;;30.80;19.30;;;12.90;99.90;;;;;;4975248;28;20235;-78
2021/11/19 08:04:00;;;;;;;28.35;18.13;;;12.90;99.90;;;;;;4975100;28;20182;-79
2021/11/19 08:06:28;;;;;;;34.70;20.75;;;12.70;99.90;;;;;;4974280;28;20178;-76
2021/11/19 08:08:55;;;;;;;28.63;19.63;;;12.80;99.90;;;;;;4975030;28;20197;-76
2021/11/19 08:11:21;;;;;;;36.85;20.00;;;12.80;99.90;;;;;;4975149;28;20165;-76
2021/11/19 08:13:47;;;;;;;39.85;20.55;;;12.70;99.90;;;;;;4974731;28;20229;-76
2021/11/19 08:16:14;;;;;;;35.15;20.88;;;12.60;99.90;;;;;;4974885;28;20212;-77
2021/11/19 08:18:51;;;;;;;30.92;21.42;;;12.70;99.90;;;;;;4974616;28;20197;-76
2021/11/19 08:21:17;;;;;;;36.42;20.90;;;12.60;99.90;;;;;;4974559;28;20272;-76
2021/11/19 08:23:47;;;;;;;33.85;20.17;;;12.60;99.90;;;;;;4989809;28;20742;-76
2021/11/19 08:26:26;;;;;;;33.70;21.45;;;12.70;99.90;;;;;;4974941;28;20174;-76
2021/11/19 08:28:52;;;;;;;32.92;20.80;;;12.60;99.90;;;;;;4974273;28;20247;-76
2021/11/19 08:31:21;;;;;;;33.60;20.42;;;12.50;99.90;;;;;;4974743;28;20571;-76
2021/11/19 08:33:48;;;;;;;40.47;22.48;;;12.40;99.90;;;;;;4974720;28;20197;-76
2021/11/19 08:36:15;;;;;;;31.88;19.80;;;12.60;99.90;;;;;;4974161;28;20260;-76
2021/11/19 08:38:44;;;;;;;38.15;19.90;;;12.70;99.90;;;;;;4974028;28;20182;-76
2021/11/19 08:41:11;;;;;;;43.25;20.67;;;12.70;99.90;;;;;;4974205;28;20700;-76
2021/11/19 08:43:40;;;;;;;35.42;20.42;;;12.80;99.90;;;;;;4973547;28;20177;-77
2021/11/19 08:46:08;;;;;;;37.88;21.10;;;12.80;99.90;;;;;;4973970;28;20170;-76
2021/11/19 08:48:37;;;;;;;34.15;20.98;;;12.70;99.90;;;;;;4974183;28;20642;-76
2021/11/19 08:51:07;;;;;;;39.47;19.75;;;12.80;99.90;;;;;;4974236;28;20176;-76
2021/11/19 08:53:33;;;;;;;34.22;20.67;;;12.80;99.90;;;;;;4972423;28;20705;-76
2021/11/19 08:56:01;;;;;;;30.15;19.88;;;12.90;99.90;;;;;;4973861;28;20201;-77
2021/11/19 08:58:32;;;;;;;31.52;18.88;;;12.90;99.90;;;;;;4973723;28;20194;-76
2021/11/19 09:01:00;;;;;;;30.33;19.13;;;13.10;99.90;;;;;;4973907;28;20210;-76
2021/11/19 09:03:27;;;;;;;38.38;20.17;;;13.20;99.90;;;;;;4973302;28;20193;-76
2021/11/19 09:05:53;;;;;;;28.95;19.13;;;13.10;99.90;;;;;;4973988;28;20256;-76
2021/11/19 09:08:22;;;;;;;29.85;20.42;;;13.20;99.90;;;;;;4973784;28;20298;-76
2021/11/19 09:10:50;;;;;;;32.97;20.70;;;13.20;99.90;;;;;;4973769;28;20166;-76
2021/11/19 09:13:17;;;;;;;40.35;19.73;;;13.20;99.90;;;;;;4973471;28;20166;-76
2021/11/19 09:15:43;;;;;;;32.70;19.88;;;13.20;99.90;;;;;;4973721;28;20738;-76
2021/11/19 09:18:26;;;;;;;31.27;20.65;;;13.20;99.90;;;;;;4972732;28;20225;-76
2021/11/19 09:21:11;;;;;;;27.73;17.63;;;13.30;99.90;;;;;;4973414;28;20700;-76
2021/11/19 09:23:47;;;;;;;39.45;19.98;;;13.20;99.90;;;;;;4972084;28;20189;-76
2021/11/19 09:26:17;;;;;;;33.05;19.85;;;13.30;99.90;;;;;;4973738;28;20181;-77
2021/11/19 09:28:46;;;;;;;35.35;18.63;;;13.40;99.90;;;;;;4973243;28;20225;-76
2021/11/19 09:31:16;;;;;;;30.98;20.15;;;13.60;99.90;;;;;;4973647;28;20503;-76
2021/11/19 09:33:44;;;;;;;31.77;20.40;;;13.60;99.90;;;;;;4973478;28;20170;-76
2021/11/19 09:36:10;;;;;;;30.92;20.20;;;13.50;99.90;;;;;;4973956;28;20249;-76
2021/11/19 09:38:35;;;;;;;38.72;20.60;;;13.30;99.90;;;;;;4973457;28;20304;-76
2021/11/19 09:41:22;;;;;;;35.88;20.92;;;13.50;99.90;;;;;;4973471;28;20685;-76
2021/11/19 09:44:04;;;;;;;26.90;19.25;;;13.60;99.90;;;;;;4973296;28;20170;-77
2021/11/19 09:46:58;;;;;;;28.90;19.27;;;13.60;99.90;;;;;;4971460;28;20178;-76
2021/11/19 09:50:02;;;;;;;30.35;18.17;;;13.70;99.90;;;;;;4972373;28;20945;-76
2021/11/19 09:52:45;;;;;;;32.83;20.02;;;13.60;99.90;;;;;;4973072;28;20172;-76
2021/11/19 09:55:30;;;;;;;28.33;18.80;;;13.60;99.90;;;;;;4973403;28;20173;-76
2021/11/19 09:58:15;;;;;;;32.13;18.80;;;13.60;99.90;;;;;;4971642;28;20332;-76
2021/11/19 10:01:10;;;;;;;34.88;18.77;;;13.50;99.90;;;;;;4973164;28;20244;-76
2021/11/19 10:03:48;;;;;;;29.73;19.58;;;13.50;99.90;;;;;;4971674;28;20534;-76
2021/11/19 10:06:38;;;;;;;34.05;18.60;;;13.60;99.90;;;;;;4973308;28;20662;-76
2021/11/19 10:09:20;;;;;;;27.42;18.67;;;13.80;99.90;;;;;;4973156;28;20190;-76
2021/11/19 10:12:06;;;;;;;28.98;18.45;;;13.90;99.90;;;;;;4972873;28;20166;-76
2021/11/19 10:14:44;;;;;;;28.23;19.02;;;13.90;99.90;;;;;;4973025;28;20173;-77
2021/11/19 10:17:33;;;;;;;25.80;17.90;;;14.00;99.90;;;;;;4973254;28;20185;-76
2021/11/19 10:20:07;;;;;;;23.75;17.17;;;14.10;99.90;;;;;;4972838;28;20202;-76
2021/11/19 10:22:37;;;;;;;28.10;18.23;;;14.10;99.90;;;;;;4972961;28;20173;-76
2021/11/19 10:25:13;;;;;;;27.65;17.45;;;14.10;99.90;;;;;;4973200;28;20188;-76
2021/11/19 10:27:45;;;;;;;25.13;17.98;;;14.10;99.90;;;;;;4972708;28;20212;-76
2021/11/19 10:30:35;;;;;;;26.30;18.92;;;14.20;99.90;;;;;;4976335;28;20174;-76
2021/11/19 10:33:23;;;;;;;23.85;16.90;;;14.20;99.90;;;;;;4976310;28;20166;-76
2021/11/19 10:36:09;;;;;;;24.42;17.02;;;14.20;99.90;;;;;;4974836;28;20170;-76
2021/11/19 10:39:03;;;;;;;25.38;17.65;;;14.20;99.90;;;;;;4974827;28;20558;-76
2021/11/19 10:41:56;;;;;;;22.23;16.95;;;14.30;99.90;;;;;;4976463;28;20415;-76
2021/11/19 10:44:53;;;;;;;26.98;17.50;;;14.50;99.90;;;;;;4976158;28;20173;-76
2021/11/19 10:47:37;;;;;;;25.48;17.17;;;14.50;99.90;;;;;;4976157;28;20244;-76
2021/11/19 10:50:21;;;;;;;25.23;17.65;;;14.40;99.90;;;;;;4976468;28;20250;-76
2021/11/19 10:53:24;;;;;;;24.85;16.63;;;14.70;99.90;;;;;;4976278;28;20178;-80
2021/11/19 10:55:59;;;;;;;19.02;14.55;;;14.40;99.90;;;;;;4968170;28;20614;-76
2021/11/19 10:58:49;;;;;;;20.70;14.65;;;14.30;99.90;;;;;;4975982;28;20228;-77
2021/11/19 11:01:20;;;;;;;23.05;16.58;;;14.20;99.90;;;;;;4976301;28;20240;-76
2021/11/19 11:03:56;;;;;;;28.65;16.20;;;14.40;99.90;;;;;;4974889;28;20169;-76
2021/11/19 11:06:52;;;;;;;24.38;15.18;;;14.50;99.90;;;;;;4976304;28;20187;-76
2021/11/19 11:09:32;;;;;;;25.65;15.73;;;14.60;99.90;;;;;;4976009;28;20174;-76
2021/11/19 11:12:18;;;;;;;21.15;15.50;;;14.60;99.90;;;;;;4976071;28;20701;-76
2021/11/19 11:14:46;;;;;;;26.95;16.75;;;14.60;99.90;;;;;;4975910;28;20668;-76
2021/11/19 11:17:26;;;;;;;22.20;15.57;;;14.50;99.90;;;;;;4975961;28;20193;-76
2021/11/19 11:19:59;;;;;;;20.60;15.23;;;14.40;99.90;;;;;;4976033;28;20617;-77
2021/11/19 11:22:28;;;;;;;22.17;15.57;;;14.20;99.90;;;;;;4976534;28;20533;-78
2021/11/19 11:25:03;;;;;;;29.60;16.60;;;14.30;99.90;;;;;;4975669;28;20177;-77
2021/11/19 11:28:00;;;;;;;20.80;16.08;;;14.30;99.90;;;;;;4975776;28;20630;-77
2021/11/19 11:30:48;;;;;;;22.70;16.80;;;14.30;99.90;;;;;;4975866;28;20185;-75
2021/11/19 11:33:24;;;;;;;21.88;17.02;;;14.20;99.90;;;;;;4975147;28;20265;-76
2021/11/19 11:36:11;;;;;;;25.77;17.08;;;14.40;99.90;;;;;;4975473;28;20507;-75
2021/11/19 11:38:53;;;;;;;20.65;16.27;;;14.30;99.90;;;;;;4975160;28;20268;-75
2021/11/19 11:41:27;;;;;;;19.73;16.15;;;14.40;99.90;;;;;;4974822;28;20565;-75
2021/11/19 11:44:06;;;;;;;25.52;16.50;;;14.40;99.90;;;;;;4975294;28;20177;-76
2021/11/19 11:46:54;;;;;;;26.10;17.17;;;14.40;99.90;;;;;;4975647;28;20186;-76
2021/11/19 11:49:29;;;;;;;33.00;17.75;;;14.60;99.90;;;;;;4975343;28;20173;-76
2021/11/19 11:52:32;;;;;;;23.73;16.60;;;14.80;99.90;;;;;;4975605;28;20192;-76
2021/11/19 11:55:19;;;;;;;27.42;15.75;;;15.00;99.90;;;;;;4970781;28;20201;-76
2021/11/19 11:57:47;;;;;;;32.83;18.13;;;14.90;99.90;;;;;;4974463;28;20182;-77
2021/11/19 12:00:35;;;;;;;30.60;18.33;;;15.00;99.90;;;;;;4974351;28;20210;-77
2021/11/19 12:03:38;;;;;;;26.95;17.25;;;14.90;99.90;;;;;;4956745;28;20175;-79
2021/11/19 12:06:21;;;;;;;32.92;17.85;;;14.90;99.90;;;;;;4974193;28;20201;-76
2021/11/19 12:08:53;;;;;;;32.35;18.85;;;14.90;99.90;;;;;;4973860;28;20638;-77
2021/11/19 12:11:55;;;;;;;28.35;19.58;;;14.80;99.90;;;;;;4973400;28;20185;-77
2021/11/19 12:14:42;;;;;;;27.00;19.50;;;14.70;99.90;;;;;;4926012;28;20191;-76
2021/11/19 12:17:37;;;;;;;25.52;18.98;;;14.60;99.90;;;;;;4964327;28;20193;-77
2021/11/19 12:20:08;;;;;;;40.72;20.05;;;14.50;99.90;;;;;;4969648;28;20206;-77
2021/11/19 12:22:45;;;;;;;35.35;20.45;;;14.40;99.90;;;;;;4973774;28;20626;-78
2021/11/19 12:25:48;;;;;;;34.70;20.02;;;14.60;99.90;;;;;;4973344;28;20513;-77
2021/11/19 12:28:29;;;;;;;29.15;19.10;;;14.60;99.90;;;;;;4973510;28;20201;-78
2021/11/19 12:31:17;;;;;;;25.70;19.55;;;14.60;99.90;;;;;;4973789;28;20170;-77
2021/11/19 12:33:48;;;;;;;28.15;19.17;;;14.70;99.90;;;;;;4955032;28;20264;-77
2021/11/19 12:36:34;;;;;;;27.27;19.30;;;14.70;99.90;;;;;;4953767;28;20166;-76
2021/11/19 12:39:04;;;;;;;37.60;20.00;;;14.90;99.90;;;;;;4954979;28;20229;-78
2021/11/19 12:41:30;;;;;;;32.65;20.00;;;14.90;99.90;;;;;;4955031;28;20227;-78
2021/11/19 12:44:16;;;;;;;26.48;19.50;;;14.90;99.90;;;;;;4954411;28;20209;-77
2021/11/19 12:46:57;;;;;;;26.80;19.00;;;14.80;99.90;;;;;;4954378;28;20253;-77
2021/11/19 12:49:53;;;;;;;30.30;18.98;;;14.70;99.90;;;;;;4955017;28;20185;-86
2021/11/19 12:52:39;;;;;;;29.35;19.50;;;14.70;99.90;;;;;;4955051;28;20177;-77
2021/11/19 12:55:35;;;;;;;35.80;20.92;;;14.80;99.90;;;;;;4968178;28;20620;-83